Time;durP1;ratioP1;P1;durP2;ratioP2;P2;SDS_P1;SDS_P2;PMS_P1;PMS_P2;Temp;Humidity;BMP_temperature;BMP_pressure;BME280_temperature;BME280_humidity;BME280_pressure;Samples;Min_cycle;Max_cycle;Signal;HPM_P1;HPM_P2
2023/06/08 00:02:23;;;;;;;21.58;7.00;;;12.10;99.90;;;;;;5027700;28;20052;-48
2023/06/08 00:04:52;;;;;;;18.45;7.47;;;12.10;99.90;;;;;;5031603;28;20051;-50
2023/06/08 00:07:19;;;;;;;20.35;8.15;;;12.20;99.90;;;;;;5029378;28;20562;-49
2023/06/08 00:09:45;;;;;;;19.90;8.88;;;12.20;99.90;;;;;;5030965;28;20056;-50
2023/06/08 00:12:11;;;;;;;19.13;9.65;;;12.20;99.90;;;;;;5033089;28;20048;-47
2023/06/08 00:14:37;;;;;;;16.65;8.75;;;12.20;99.90;;;;;;5029126;28;20053;-50
2023/06/08 00:17:04;;;;;;;17.75;8.50;;;12.20;99.90;;;;;;5027735;28;20406;-50
2023/06/08 00:19:35;;;;;;;19.83;8.98;;;12.20;99.90;;;;;;5029469;28;20046;-50
2023/06/08 00:22:04;;;;;;;16.63;8.65;;;12.20;99.90;;;;;;5032137;28;20069;-51
2023/06/08 00:24:34;;;;;;;21.35;8.57;;;12.10;99.90;;;;;;5030010;28;20124;-48
2023/06/08 00:27:00;;;;;;;19.85;8.63;;;12.10;99.90;;;;;;5029071;28;20282;-48
2023/06/08 00:29:26;;;;;;;22.88;9.15;;;12.10;99.90;;;;;;5031997;28;20055;-48
2023/06/08 00:31:53;;;;;;;17.98;7.53;;;12.10;99.90;;;;;;5029929;28;22041;-49
2023/06/08 00:34:18;;;;;;;17.73;8.45;;;12.00;99.90;;;;;;5027565;28;20074;-48
2023/06/08 00:36:45;;;;;;;18.98;8.20;;;12.00;99.90;;;;;;5030840;28;20843;-52
2023/06/08 00:39:12;;;;;;;18.90;8.82;;;12.00;99.90;;;;;;5030136;28;20037;-48
2023/06/08 00:41:38;;;;;;;19.23;9.05;;;12.00;99.90;;;;;;5047048;28;20053;-50
2023/06/08 00:44:06;;;;;;;25.27;9.02;;;12.00;99.90;;;;;;5027705;28;20044;-48
2023/06/08 00:46:32;;;;;;;22.27;8.50;;;12.00;99.90;;;;;;5031698;28;20056;-52
2023/06/08 00:48:59;;;;;;;24.27;8.30;;;12.00;99.90;;;;;;5031711;28;20033;-52
2023/06/08 00:51:33;;;;;;;19.55;7.65;;;12.00;99.90;;;;;;5031118;28;20132;-50
2023/06/08 00:54:00;;;;;;;17.17;7.97;;;12.00;99.90;;;;;;5018810;28;20509;-49
2023/06/08 00:56:31;;;;;;;20.52;9.20;;;12.00;99.90;;;;;;5018611;28;20099;-49
2023/06/08 00:59:00;;;;;;;16.83;9.27;;;12.00;99.90;;;;;;5030977;28;20033;-49
2023/06/08 01:01:29;;;;;;;20.05;9.25;;;12.00;99.90;;;;;;5026344;28;20413;-50
2023/06/08 01:04:08;;;;;;;21.10;10.57;;;11.90;99.90;;;;;;5031362;28;20090;-51
2023/06/08 01:06:37;;;;;;;22.05;10.52;;;11.90;99.90;;;;;;5034697;28;20093;-52
2023/06/08 01:09:13;;;;;;;21.02;10.50;;;11.90;99.90;;;;;;5025342;28;20049;-49
2023/06/08 01:12:17;;;;;;;22.15;11.02;;;12.00;99.90;;;;;;5032883;28;20053;-48
2023/06/08 01:14:51;;;;;;;20.23;9.98;;;12.00;99.90;;;;;;5033096;28;20068;-52
2023/06/08 01:17:19;;;;;;;29.90;9.55;;;12.00;99.90;;;;;;5033899;28;20450;-52
2023/06/08 01:20:18;;;;;;;19.85;8.55;;;12.00;99.90;;;;;;5031313;28;20456;-52
2023/06/08 01:23:23;;;;;;;19.02;9.20;;;12.00;99.90;;;;;;5022952;28;20176;-49
2023/06/08 01:25:50;;;;;;;22.95;8.35;;;12.00;99.90;;;;;;5032164;28;20052;-53
2023/06/08 01:28:16;;;;;;;15.98;6.63;;;12.00;99.90;;;;;;5033541;28;20044;-50
2023/06/08 01:30:48;;;;;;;18.17;6.30;;;12.00;99.90;;;;;;5033165;28;20056;-50
2023/06/08 01:33:19;;;;;;;16.15;6.63;;;12.00;99.90;;;;;;5036020;28;20048;-50
2023/06/08 01:36:12;;;;;;;14.25;6.90;;;12.00;99.90;;;;;;5032197;28;20033;-49
2023/06/08 01:38:44;;;;;;;16.75;7.03;;;12.00;99.90;;;;;;5033186;28;20410;-49
2023/06/08 01:41:21;;;;;;;13.40;6.83;;;12.00;99.90;;;;;;5031523;28;20086;-50
2023/06/08 01:43:49;;;;;;;19.50;7.50;;;12.00;99.90;;;;;;5036398;28;20037;-50
2023/06/08 01:46:17;;;;;;;15.63;8.18;;;12.00;99.90;;;;;;5035403;28;20041;-48
2023/06/08 01:48:46;;;;;;;17.00;8.68;;;12.10;99.90;;;;;;5036274;28;20036;-48
2023/06/08 01:51:14;;;;;;;20.25;10.23;;;12.00;99.90;;;;;;5032784;28;20112;-49
2023/06/08 01:53:41;;;;;;;22.83;10.80;;;12.00;99.90;;;;;;5032096;28;20741;-51
2023/06/08 01:56:07;;;;;;;20.55;10.60;;;12.00;99.90;;;;;;5033721;28;20542;-53
2023/06/08 01:58:32;;;;;;;26.20;11.63;;;12.00;99.90;;;;;;5028102;28;20127;-53
2023/06/08 02:00:58;;;;;;;24.15;12.07;;;12.00;99.90;;;;;;5035006;28;20059;-51
2023/06/08 02:03:24;;;;;;;25.65;11.70;;;12.00;99.90;;;;;;5031039;28;20152;-51
2023/06/08 02:05:50;;;;;;;16.92;10.45;;;12.00;99.90;;;;;;5025194;28;20465;-49
2023/06/08 02:08:16;;;;;;;18.92;10.73;;;12.10;99.90;;;;;;5028918;28;20065;-50
2023/06/08 02:10:41;;;;;;;25.48;10.35;;;12.10;99.90;;;;;;5034793;28;20071;-49
2023/06/08 02:13:07;;;;;;;22.00;9.50;;;12.10;99.90;;;;;;5037284;28;20073;-52
2023/06/08 02:15:33;;;;;;;19.58;9.00;;;12.10;99.90;;;;;;5030779;28;20041;-52
2023/06/08 02:17:59;;;;;;;19.00;8.75;;;12.10;99.90;;;;;;5029563;28;20047;-52
2023/06/08 02:20:26;;;;;;;23.67;9.07;;;12.10;99.90;;;;;;5031121;28;20053;-50
2023/06/08 02:22:53;;;;;;;21.02;7.82;;;12.10;99.90;;;;;;5028571;28;20069;-50
2023/06/08 02:25:19;;;;;;;17.60;7.25;;;12.10;99.90;;;;;;5029448;28;20042;-54
2023/06/08 02:27:45;;;;;;;22.38;7.53;;;12.10;99.90;;;;;;5029604;28;20041;-51
2023/06/08 02:30:12;;;;;;;14.32;7.15;;;12.10;99.90;;;;;;5032792;28;20040;-49
2023/06/08 02:32:41;;;;;;;19.17;8.23;;;12.10;99.90;;;;;;5027361;28;20112;-48
2023/06/08 02:35:08;;;;;;;23.52;8.68;;;12.10;99.90;;;;;;5029382;28;20045;-53
2023/06/08 02:37:34;;;;;;;19.13;8.80;;;12.10;99.90;;;;;;5031959;28;20049;-52
2023/06/08 02:40:07;;;;;;;23.70;9.18;;;12.10;99.90;;;;;;5032446;28;21014;-52
2023/06/08 02:42:33;;;;;;;22.30;8.35;;;12.10;99.90;;;;;;5029558;28;20053;-51
2023/06/08 02:44:59;;;;;;;17.27;7.68;;;12.20;99.90;;;;;;5032829;28;20052;-50
2023/06/08 02:47:25;;;;;;;19.15;8.02;;;12.10;99.90;;;;;;5033902;28;20040;-52
2023/06/08 02:49:50;;;;;;;18.13;8.40;;;12.10;99.90;;;;;;5030602;28;20072;-51
2023/06/08 02:52:16;;;;;;;20.58;8.13;;;12.10;99.90;;;;;;5032918;28;21351;-50
2023/06/08 02:54:42;;;;;;;22.88;8.40;;;12.10;99.90;;;;;;5029511;28;20056;-48
2023/06/08 02:57:07;;;;;;;16.98;7.22;;;12.20;99.90;;;;;;5028615;28;20067;-52
2023/06/08 02:59:33;;;;;;;17.65;7.72;;;12.20;99.90;;;;;;5030897;28;20098;-51
2023/06/08 03:01:59;;;;;;;20.67;7.35;;;12.20;99.90;;;;;;5033558;28;20061;-51
2023/06/08 03:04:27;;;;;;;21.08;8.85;;;12.20;99.90;;;;;;5034181;28;20044;-50
2023/06/08 03:06:53;;;;;;;21.70;9.07;;;12.20;99.90;;;;;;5018748;28;20082;-49
2023/06/08 03:09:24;;;;;;;21.17;7.47;;;12.20;99.90;;;;;;5026016;28;20049;-49
2023/06/08 03:11:51;;;;;;;14.90;6.80;;;12.20;99.90;;;;;;5029407;28;20048;-54
2023/06/08 03:14:18;;;;;;;20.38;8.70;;;12.20;99.90;;;;;;5017591;28;20044;-52
2023/06/08 03:16:48;;;;;;;19.45;7.47;;;12.20;99.90;;;;;;5030299;28;20080;-49
2023/06/08 03:19:15;;;;;;;15.60;6.50;;;12.20;99.90;;;;;;5028578;28;20081;-50
2023/06/08 03:21:43;;;;;;;14.85;6.60;;;12.20;99.90;;;;;;5029865;28;20057;-53
2023/06/08 03:24:10;;;;;;;13.13;6.28;;;12.20;99.90;;;;;;5025120;28;20052;-50
2023/06/08 03:26:36;;;;;;;17.02;6.50;;;12.20;99.90;;;;;;5030848;28;20631;-51
2023/06/08 03:29:02;;;;;;;15.27;6.20;;;12.20;99.90;;;;;;5026350;28;20045;-53
2023/06/08 03:31:29;;;;;;;16.85;6.85;;;12.20;99.90;;;;;;5029039;28;20069;-51
2023/06/08 03:33:56;;;;;;;14.50;6.70;;;12.20;99.90;;;;;;5028456;28;20120;-52
2023/06/08 03:36:28;;;;;;;16.20;7.22;;;12.20;99.90;;;;;;5031417;28;20466;-49
2023/06/08 03:38:54;;;;;;;20.25;6.82;;;12.20;99.90;;;;;;5028299;28;20091;-49
2023/06/08 03:41:19;;;;;;;15.10;6.65;;;12.20;99.90;;;;;;5025626;28;20049;-50
2023/06/08 03:43:45;;;;;;;20.77;7.20;;;12.20;99.90;;;;;;5028369;28;20041;-51
2023/06/08 03:46:11;;;;;;;12.85;6.65;;;12.20;99.90;;;;;;5032291;28;20076;-53
2023/06/08 03:48:37;;;;;;;15.57;6.68;;;12.20;99.90;;;;;;5029506;28;20512;-54
2023/06/08 03:51:02;;;;;;;21.27;6.82;;;12.20;99.90;;;;;;5029214;28;20497;-50
2023/06/08 03:53:28;;;;;;;14.05;5.97;;;12.30;99.90;;;;;;5026085;28;20495;-52
2023/06/08 03:55:54;;;;;;;19.45;6.70;;;12.30;99.90;;;;;;5027620;28;20037;-50
2023/06/08 03:58:21;;;;;;;20.55;6.70;;;12.30;99.90;;;;;;5029467;28;20084;-53
2023/06/08 04:00:49;;;;;;;15.23;7.50;;;12.30;99.90;;;;;;5028612;28;20059;-52
2023/06/08 04:03:14;;;;;;;20.50;6.78;;;12.30;99.90;;;;;;5028072;28;20049;-54
2023/06/08 04:05:40;;;;;;;15.65;5.95;;;12.30;99.90;;;;;;5030011;28;20064;-50
2023/06/08 04:08:06;;;;;;;16.88;6.78;;;12.30;99.90;;;;;;5028677;28;20049;-48
2023/06/08 04:10:32;;;;;;;14.98;6.25;;;12.30;99.90;;;;;;5032170;28;20040;-51
2023/06/08 04:12:58;;;;;;;13.32;6.22;;;12.40;99.90;;;;;;5030710;28;20051;-54
2023/06/08 04:15:25;;;;;;;13.75;6.47;;;12.30;99.90;;;;;;5027996;28;20045;-50
2023/06/08 04:17:51;;;;;;;13.65;5.82;;;12.40;99.90;;;;;;5014603;28;20053;-53
2023/06/08 04:20:17;;;;;;;13.60;5.28;;;12.40;99.90;;;;;;5029432;28;20072;-54
2023/06/08 04:22:43;;;;;;;15.80;6.07;;;12.40;99.90;;;;;;5030894;28;20053;-50
2023/06/08 04:25:09;;;;;;;12.68;6.20;;;12.40;99.90;;;;;;5018435;28;20052;-51
2023/06/08 04:27:34;;;;;;;17.00;6.90;;;12.40;99.90;;;;;;5036832;28;20135;-52
2023/06/08 04:30:01;;;;;;;19.08;6.25;;;12.50;99.90;;;;;;5027213;28;20065;-51
2023/06/08 04:32:27;;;;;;;16.67;5.80;;;12.50;99.90;;;;;;5025998;28;20056;-53
2023/06/08 04:34:53;;;;;;;13.68;5.85;;;12.50;99.90;;;;;;5029483;28;20042;-52
2023/06/08 04:37:19;;;;;;;16.30;6.68;;;12.50;99.90;;;;;;5030290;28;20095;-53
2023/06/08 04:39:45;;;;;;;22.10;6.97;;;12.50;99.90;;;;;;5026947;28;20068;-51
2023/06/08 04:42:10;;;;;;;18.42;5.90;;;12.60;99.90;;;;;;5030165;28;20068;-54
2023/06/08 04:44:36;;;;;;;14.57;6.13;;;12.60;99.90;;;;;;5021692;28;20243;-52
2023/06/08 04:47:07;;;;;;;19.65;7.20;;;12.60;99.90;;;;;;5026516;28;20045;-50
2023/06/08 04:49:33;;;;;;;13.57;6.43;;;12.70;99.90;;;;;;5023174;28;20045;-49
2023/06/08 04:51:59;;;;;;;13.52;6.35;;;12.70;99.90;;;;;;5032600;28;20520;-52
2023/06/08 04:54:28;;;;;;;16.98;6.13;;;12.70;99.90;;;;;;5030205;28;20404;-54
2023/06/08 04:56:58;;;;;;;15.60;6.38;;;12.70;99.90;;;;;;5028522;28;20072;-52
2023/06/08 04:59:27;;;;;;;16.20;7.28;;;12.70;99.90;;;;;;5026655;28;20064;-50
2023/06/08 05:01:54;;;;;;;16.27;6.82;;;12.70;99.90;;;;;;5026707;28;20110;-51
2023/06/08 05:04:21;;;;;;;18.90;6.65;;;12.80;99.90;;;;;;5028546;28;20302;-53
2023/06/08 05:06:47;;;;;;;15.45;5.55;;;12.80;99.90;;;;;;5027546;28;20495;-54
2023/06/08 05:09:13;;;;;;;19.75;5.97;;;12.80;99.90;;;;;;5026413;28;20045;-49
2023/06/08 05:11:40;;;;;;;15.73;5.63;;;12.90;99.90;;;;;;5029116;28;20404;-54
2023/06/08 05:14:08;;;;;;;18.38;6.30;;;12.90;99.90;;;;;;5026553;28;20038;-50
2023/06/08 05:16:35;;;;;;;17.55;5.70;;;12.90;99.90;;;;;;5025831;28;20049;-53
2023/06/08 05:19:01;;;;;;;20.67;7.50;;;12.90;99.90;;;;;;5022976;28;20049;-52
2023/06/08 05:21:27;;;;;;;17.08;6.15;;;12.90;99.90;;;;;;5021162;28;20135;-51
2023/06/08 05:23:53;;;;;;;21.52;6.13;;;13.00;99.90;;;;;;5023630;28;20550;-52
2023/06/08 05:26:21;;;;;;;14.80;6.40;;;13.00;99.90;;;;;;5012547;28;20060;-52
2023/06/08 05:28:47;;;;;;;13.80;6.45;;;13.00;99.90;;;;;;5027464;28;20136;-54
2023/06/08 05:31:13;;;;;;;18.45;6.47;;;13.00;99.90;;;;;;5024740;28;21260;-51
2023/06/08 05:33:38;;;;;;;16.80;5.78;;;13.00;99.90;;;;;;5028746;28;20888;-50
2023/06/08 05:36:05;;;;;;;13.55;5.38;;;13.10;99.90;;;;;;5027860;28;20382;-51
2023/06/08 05:38:31;;;;;;;15.48;5.88;;;13.10;99.90;;;;;;5037626;28;20087;-54
2023/06/08 05:40:57;;;;;;;17.63;5.90;;;13.10;99.90;;;;;;5026076;28;20545;-50
2023/06/08 05:43:22;;;;;;;12.25;5.28;;;13.10;99.90;;;;;;5041381;28;20110;-51
2023/06/08 05:45:49;;;;;;;18.58;6.30;;;13.20;99.90;;;;;;5025846;28;20086;-52
2023/06/08 05:48:15;;;;;;;16.10;5.85;;;13.20;99.90;;;;;;5042723;28;20411;-52
2023/06/08 05:50:40;;;;;;;21.40;6.00;;;13.20;99.90;;;;;;5017141;28;20040;-50
2023/06/08 05:53:06;;;;;;;16.35;5.82;;;13.30;99.90;;;;;;5032940;28;20041;-53
2023/06/08 05:55:32;;;;;;;18.50;5.70;;;13.30;99.90;;;;;;5034931;28;20095;-53
2023/06/08 05:57:57;;;;;;;10.90;5.25;;;13.40;99.90;;;;;;5034604;28;20183;-51
2023/06/08 06:00:24;;;;;;;15.85;5.38;;;13.40;99.90;;;;;;5033479;28;20432;-51
2023/06/08 06:02:49;;;;;;;19.23;5.78;;;13.50;99.90;;;;;;5036176;28;20037;-51
2023/06/08 06:05:15;;;;;;;13.63;5.07;;;13.60;99.90;;;;;;5034210;28;20569;-51
2023/06/08 06:07:41;;;;;;;13.40;5.25;;;13.70;99.90;;;;;;5034393;28;20037;-53
2023/06/08 06:10:08;;;;;;;17.40;5.35;;;13.80;99.90;;;;;;5029979;28;20081;-50
2023/06/08 06:12:34;;;;;;;20.73;5.90;;;13.80;99.90;;;;;;5031769;28;20033;-52
2023/06/08 06:15:00;;;;;;;15.57;6.03;;;13.90;99.90;;;;;;5026530;28;20041;-57
2023/06/08 06:17:26;;;;;;;16.23;6.28;;;14.00;99.90;;;;;;5032184;28;20041;-56
2023/06/08 06:19:52;;;;;;;17.92;5.20;;;14.00;99.90;;;;;;5037915;28;20159;-57
2023/06/08 06:22:18;;;;;;;18.65;5.93;;;14.00;99.90;;;;;;5040536;28;20136;-57
2023/06/08 06:24:44;;;;;;;14.45;5.70;;;14.00;99.90;;;;;;5039188;28;20033;-58
2023/06/08 06:27:13;;;;;;;11.10;5.38;;;14.00;99.90;;;;;;5039272;28;20419;-56
2023/06/08 06:29:38;;;;;;;17.17;5.53;;;14.00;99.90;;;;;;5039142;28;20102;-57
2023/06/08 06:32:05;;;;;;;16.73;5.47;;;14.00;99.90;;;;;;5038441;28;20370;-56
2023/06/08 06:34:30;;;;;;;16.88;5.65;;;14.00;99.90;;;;;;5023136;28;20052;-56
2023/06/08 06:36:59;;;;;;;17.75;5.00;;;14.10;99.90;;;;;;5052845;28;20405;-57
2023/06/08 06:39:24;;;;;;;16.42;5.47;;;14.20;99.90;;;;;;5039417;28;20544;-56
2023/06/08 06:41:50;;;;;;;16.67;6.03;;;14.20;99.90;;;;;;5038806;28;20125;-56
2023/06/08 06:44:16;;;;;;;13.77;5.20;;;14.30;99.90;;;;;;5038273;28;20033;-57
2023/06/08 06:46:42;;;;;;;18.40;5.50;;;14.30;99.90;;;;;;5039425;28;20037;-56
2023/06/08 06:49:08;;;;;;;22.42;6.03;;;14.40;99.90;;;;;;5041083;28;20042;-58
2023/06/08 06:51:33;;;;;;;15.00;5.55;;;14.40;99.90;;;;;;5039552;28;20551;-57
2023/06/08 06:54:00;;;;;;;14.90;5.03;;;14.40;99.90;;;;;;5039217;28;20033;-57
2023/06/08 06:56:26;;;;;;;13.75;5.00;;;14.50;99.90;;;;;;5039101;28;20041;-57
2023/06/08 06:58:52;;;;;;;16.67;5.25;;;14.50;99.90;;;;;;5040250;28;20042;-57
2023/06/08 07:01:18;;;;;;;16.23;4.45;;;14.50;99.90;;;;;;5040922;28;20091;-58
2023/06/08 07:03:46;;;;;;;19.52;4.95;;;14.60;99.90;;;;;;5038473;28;20045;-57
2023/06/08 07:06:13;;;;;;;14.65;5.07;;;14.60;99.90;;;;;;5039115;28;20052;-57
2023/06/08 07:08:39;;;;;;;15.52;5.25;;;14.70;99.90;;;;;;5039568;28;20112;-57
2023/06/08 07:11:05;;;;;;;15.95;4.70;;;14.80;99.90;;;;;;5037478;28;20048;-57
2023/06/08 07:13:31;;;;;;;16.17;4.65;;;14.90;99.90;;;;;;5041205;28;20045;-58
2023/06/08 07:15:57;;;;;;;13.90;4.32;;;15.00;99.90;;;;;;5036617;28;20029;-57
2023/06/08 07:18:23;;;;;;;13.70;4.90;;;15.10;99.90;;;;;;5036403;28;20064;-57
2023/06/08 07:20:50;;;;;;;12.60;5.18;;;15.10;99.90;;;;;;5040390;28;20053;-57
2023/06/08 07:23:16;;;;;;;12.02;5.18;;;15.20;99.90;;;;;;5037356;28;20041;-56
2023/06/08 07:25:42;;;;;;;15.25;4.93;;;15.30;99.90;;;;;;5041142;28;20037;-58
2023/06/08 07:28:08;;;;;;;15.23;5.43;;;15.40;99.90;;;;;;5039793;28;20440;-57
2023/06/08 07:30:35;;;;;;;14.73;5.00;;;15.50;99.90;;;;;;5036570;28;20407;-57
2023/06/08 07:33:01;;;;;;;17.10;5.50;;;15.60;99.90;;;;;;5037218;28;20044;-56
2023/06/08 07:35:27;;;;;;;12.38;4.75;;;15.60;99.90;;;;;;5037494;28;20386;-57
2023/06/08 07:37:54;;;;;;;15.27;5.68;;;15.70;99.90;;;;;;5039009;28;20164;-57
2023/06/08 07:40:20;;;;;;;18.48;5.82;;;15.80;99.90;;;;;;5039938;28;20049;-56
2023/06/08 07:42:46;;;;;;;14.38;5.68;;;15.90;99.90;;;;;;5037413;28;20087;-57
2023/06/08 07:45:14;;;;;;;18.33;5.90;;;15.90;99.90;;;;;;5039268;28;20109;-56
2023/06/08 07:47:41;;;;;;;17.65;5.72;;;16.00;99.90;;;;;;5037225;28;20389;-56
2023/06/08 07:50:08;;;;;;;15.98;5.40;;;16.00;99.90;;;;;;5038595;28;20098;-56
2023/06/08 07:52:34;;;;;;;15.55;5.32;;;16.10;99.90;;;;;;5040016;28;20090;-58
2023/06/08 07:55:00;;;;;;;19.65;5.72;;;16.20;99.90;;;;;;5037680;28;20045;-57
2023/06/08 07:57:26;;;;;;;18.00;5.53;;;16.30;99.90;;;;;;5038166;28;20065;-56
2023/06/08 07:59:53;;;;;;;15.88;5.15;;;16.40;99.90;;;;;;5037216;28;20118;-57
2023/06/08 08:02:19;;;;;;;16.02;4.57;;;16.40;99.90;;;;;;5036066;28;20041;-58
2023/06/08 08:04:45;;;;;;;16.52;5.18;;;16.40;99.90;;;;;;5041089;28;20048;-57
2023/06/08 08:07:11;;;;;;;16.40;5.63;;;16.50;99.90;;;;;;5036566;28;20041;-55
2023/06/08 08:09:37;;;;;;;11.40;4.68;;;16.60;99.90;;;;;;5037248;28;20044;-57
2023/06/08 08:12:03;;;;;;;14.30;4.78;;;16.60;99.90;;;;;;5037020;28;20040;-57
2023/06/08 08:14:28;;;;;;;13.40;5.40;;;16.80;99.90;;;;;;5036262;28;20048;-56
2023/06/08 08:16:54;;;;;;;11.57;4.72;;;16.80;99.90;;;;;;5038451;28;20056;-56
2023/06/08 08:19:20;;;;;;;14.38;4.97;;;16.90;99.90;;;;;;5037427;28;20046;-57
2023/06/08 08:21:46;;;;;;;16.63;5.25;;;17.00;99.90;;;;;;5035723;28;20505;-58
2023/06/08 08:24:11;;;;;;;12.02;4.68;;;17.10;99.90;;;;;;5035745;28;20033;-57
2023/06/08 08:26:43;;;;;;;15.60;4.72;;;17.20;99.90;;;;;;5038430;28;20096;-58
2023/06/08 08:29:09;;;;;;;15.32;4.57;;;17.40;99.90;;;;;;5037116;28;20037;-57
2023/06/08 08:31:35;;;;;;;12.00;4.55;;;17.40;99.90;;;;;;5038192;28;20048;-57
2023/06/08 08:34:01;;;;;;;10.75;4.38;;;17.40;99.90;;;;;;5036842;28;20477;-57
2023/06/08 08:36:27;;;;;;;12.27;4.63;;;17.50;99.90;;;;;;5035472;28;20120;-56
2023/06/08 08:38:53;;;;;;;13.88;4.82;;;17.50;99.90;;;;;;5033392;28;20120;-56
2023/06/08 08:41:20;;;;;;;11.18;4.13;;;17.60;99.90;;;;;;5035545;28;21015;-57
2023/06/08 08:44:01;;;;;;;12.25;4.75;;;17.70;99.90;;;;;;5038143;28;20398;-57
2023/06/08 08:46:30;;;;;;;14.73;4.70;;;17.70;99.90;;;;;;5038911;28;20045;-56
2023/06/08 08:49:00;;;;;;;13.32;4.20;;;17.80;99.90;;;;;;5036694;28;20041;-56
2023/06/08 08:51:28;;;;;;;10.18;4.53;;;17.80;99.90;;;;;;5038247;28;20045;-56
2023/06/08 08:53:57;;;;;;;11.23;4.13;;;17.90;99.90;;;;;;5037074;28;20577;-57
2023/06/08 08:56:28;;;;;;;16.40;5.13;;;18.00;99.90;;;;;;5036388;28;20045;-57
2023/06/08 08:58:54;;;;;;;11.77;4.05;;;18.10;99.90;;;;;;5039253;28;20128;-56
2023/06/08 09:01:22;;;;;;;11.90;4.47;;;18.20;99.90;;;;;;5035957;28;20503;-57
2023/06/08 09:03:48;;;;;;;13.50;4.53;;;18.30;99.90;;;;;;5036375;28;20141;-56
2023/06/08 09:06:14;;;;;;;11.80;4.22;;;18.30;99.90;;;;;;5036049;28;20044;-57
2023/06/08 09:08:40;;;;;;;13.10;4.63;;;18.40;99.90;;;;;;5036007;28;20049;-57
2023/06/08 09:11:09;;;;;;;11.80;4.65;;;18.50;99.90;;;;;;5038154;28;20486;-57
2023/06/08 09:13:36;;;;;;;12.38;4.45;;;18.50;99.90;;;;;;5036659;28;20179;-57
2023/06/08 09:16:21;;;;;;;12.95;4.28;;;18.50;99.90;;;;;;5035827;28;20370;-55
2023/06/08 09:19:02;;;;;;;12.48;4.13;;;18.60;99.90;;;;;;5036209;28;20076;-56
2023/06/08 09:21:28;;;;;;;12.60;4.00;;;18.70;99.90;;;;;;5034197;28;20049;-56
2023/06/08 09:24:22;;;;;;;13.38;4.53;;;18.80;99.90;;;;;;5036905;28;20423;-56
2023/06/08 09:26:56;;;;;;;10.50;3.92;;;18.90;99.90;;;;;;5041135;28;20033;-57
2023/06/08 09:29:36;;;;;;;11.32;3.97;;;18.90;99.90;;;;;;5040294;28;20571;-57
2023/06/08 09:32:03;;;;;;;14.20;4.10;;;19.00;99.90;;;;;;5042296;28;20052;-57
2023/06/08 09:34:30;;;;;;;14.73;4.30;;;19.10;99.90;;;;;;5041208;28;20350;-56
2023/06/08 09:37:10;;;;;;;11.43;3.72;;;19.20;99.90;;;;;;5055811;28;20037;-56
2023/06/08 09:39:44;;;;;;;12.85;3.83;;;19.30;99.90;;;;;;5040436;28;20049;-57
2023/06/08 09:42:11;;;;;;;12.73;4.18;;;19.40;99.90;;;;;;5038723;28;20127;-57
2023/06/08 09:44:37;;;;;;;18.20;4.35;;;19.40;99.90;;;;;;5040129;28;20448;-57
2023/06/08 09:47:30;;;;;;;13.73;4.07;;;19.40;99.90;;;;;;5042816;28;20044;-56
2023/06/08 09:49:56;;;;;;;10.27;3.83;;;19.40;99.90;;;;;;5041921;28;20409;-56
2023/06/08 09:52:25;;;;;;;9.73;3.35;;;19.40;99.80;;;;;;5039459;28;20045;-56
2023/06/08 09:54:51;;;;;;;7.82;3.67;;;19.60;99.90;;;;;;5040198;28;20461;-57
2023/06/08 09:57:20;;;;;;;12.95;4.18;;;19.70;99.80;;;;;;5037916;28;20044;-56
2023/06/08 10:00:17;;;;;;;9.65;3.67;;;19.80;99.30;;;;;;5040233;28;20048;-56
2023/06/08 10:02:59;;;;;;;12.27;3.80;;;19.90;99.20;;;;;;5039418;28;20374;-57
2023/06/08 10:05:29;;;;;;;9.60;3.53;;;19.90;99.60;;;;;;5041532;28;20077;-57
2023/06/08 10:07:58;;;;;;;9.95;3.42;;;20.00;99.70;;;;;;5039274;28;20091;-57
2023/06/08 10:10:38;;;;;;;10.88;3.97;;;20.10;98.90;;;;;;5039245;28;20052;-57
2023/06/08 10:13:09;;;;;;;10.52;3.70;;;20.20;99.00;;;;;;5038105;28;20045;-57
2023/06/08 10:15:36;;;;;;;10.32;3.80;;;20.20;99.00;;;;;;5039811;28;20056;-57
2023/06/08 10:18:03;;;;;;;12.90;3.63;;;20.30;99.00;;;;;;5038553;28;20042;-57
2023/06/08 10:20:29;;;;;;;12.45;4.35;;;20.30;98.90;;;;;;5040514;28;20118;-57
2023/06/08 10:22:58;;;;;;;14.48;4.85;;;20.40;98.50;;;;;;5040605;28;20052;-57
2023/06/08 10:25:27;;;;;;;8.55;4.28;;;20.40;98.10;;;;;;5039476;28;20053;-57
2023/06/08 10:27:54;;;;;;;10.60;4.25;;;20.40;98.10;;;;;;5055212;28;20536;-55
2023/06/08 10:30:41;;;;;;;9.68;4.03;;;20.50;98.30;;;;;;5038607;28;20139;-57
2023/06/08 10:33:08;;;;;;;13.10;4.38;;;20.60;97.90;;;;;;5039583;28;20048;-57
2023/06/08 10:35:34;;;;;;;10.38;4.13;;;20.60;97.30;;;;;;5041104;28;22022;-57
2023/06/08 10:38:15;;;;;;;11.07;4.65;;;20.60;97.00;;;;;;5038657;28;20099;-57
2023/06/08 10:40:50;;;;;;;8.35;3.40;;;20.60;97.30;;;;;;5037968;28;20448;-57
2023/06/08 10:43:17;;;;;;;10.77;4.13;;;20.70;97.30;;;;;;5038070;28;20116;-57
2023/06/08 10:45:45;;;;;;;14.00;3.92;;;20.70;97.20;;;;;;5039034;28;20037;-57
2023/06/08 10:48:16;;;;;;;10.73;4.22;;;20.80;96.90;;;;;;5039178;28;20107;-57
2023/06/08 10:50:42;;;;;;;11.70;4.20;;;21.00;96.80;;;;;;5040324;28;20505;-57
2023/06/08 10:53:08;;;;;;;13.00;4.15;;;21.00;96.40;;;;;;5025380;28;20460;-57
2023/06/08 10:55:34;;;;;;;10.80;4.22;;;21.00;96.60;;;;;;5039640;28;20120;-57
2023/06/08 10:58:06;;;;;;;13.02;4.20;;;21.10;96.60;;;;;;5020958;28;20045;-57
2023/06/08 11:00:41;;;;;;;12.95;4.35;;;21.20;96.00;;;;;;5037561;28;20029;-57
2023/06/08 11:03:13;;;;;;;9.40;4.30;;;21.20;95.90;;;;;;5038953;28;20099;-57
2023/06/08 11:05:44;;;;;;;12.70;3.88;;;21.30;95.70;;;;;;5038736;28;20048;-57
2023/06/08 11:08:11;;;;;;;12.68;4.25;;;21.40;96.40;;;;;;5041080;28;20034;-57
2023/06/08 11:10:42;;;;;;;9.38;3.60;;;21.60;96.50;;;;;;5039384;28;20052;-57
2023/06/08 11:13:13;;;;;;;8.85;3.72;;;21.70;95.90;;;;;;5039084;28;20041;-57
2023/06/08 11:15:41;;;;;;;12.43;3.92;;;21.90;95.50;;;;;;5038237;28;20143;-57
2023/06/08 11:18:08;;;;;;;10.00;3.70;;;22.00;95.40;;;;;;5038696;28;20037;-57
2023/06/08 11:20:37;;;;;;;7.63;3.20;;;22.10;94.50;;;;;;5039127;28;20049;-57
2023/06/08 11:23:10;;;;;;;10.57;3.72;;;22.10;93.80;;;;;;5040111;28;20055;-56
2023/06/08 11:25:36;;;;;;;8.63;3.40;;;22.20;93.90;;;;;;5038201;28;20037;-56
2023/06/08 11:28:03;;;;;;;9.23;3.38;;;22.20;92.80;;;;;;5020679;28;20485;-57
2023/06/08 11:30:37;;;;;;;12.18;3.80;;;22.10;92.20;;;;;;5038929;28;20485;-57
2023/06/08 11:33:07;;;;;;;8.38;3.30;;;22.10;91.60;;;;;;5038107;28;20049;-57
2023/06/08 11:35:36;;;;;;;7.15;3.00;;;22.10;92.00;;;;;;5053955;28;20404;-56
2023/06/08 11:38:02;;;;;;;9.93;3.25;;;22.00;91.80;;;;;;5037663;28;20389;-57
2023/06/08 11:40:30;;;;;;;7.90;3.55;;;22.00;91.70;;;;;;5036518;28;20049;-57
2023/06/08 11:42:57;;;;;;;8.13;3.00;;;22.00;91.30;;;;;;5036311;28;20033;-57
2023/06/08 11:45:23;;;;;;;10.18;3.38;;;22.00;91.30;;;;;;5036074;28;20067;-58
2023/06/08 11:47:53;;;;;;;8.57;3.13;;;22.00;90.60;;;;;;5037223;28;20052;-56
2023/06/08 11:50:19;;;;;;;7.65;3.15;;;22.10;90.50;;;;;;5039174;28;20041;-56
2023/06/08 11:52:46;;;;;;;10.40;3.00;;;22.10;90.40;;;;;;5034943;28;20098;-57
2023/06/08 11:55:17;;;;;;;7.60;2.83;;;22.10;89.70;;;;;;5036936;28;20041;-57
2023/06/08 11:57:44;;;;;;;11.82;3.17;;;22.10;89.90;;;;;;5039938;28;20040;-57
2023/06/08 12:00:33;;;;;;;12.05;3.58;;;22.30;90.10;;;;;;5037220;28;20153;-57
2023/06/08 12:03:01;;;;;;;7.60;3.50;;;22.40;88.60;;;;;;5037820;28;20049;-57
2023/06/08 12:05:29;;;;;;;8.68;3.47;;;22.40;87.60;;;;;;5039349;28;20090;-57
2023/06/08 12:08:04;;;;;;;8.48;3.72;;;22.50;89.30;;;;;;5037183;28;20045;-56
2023/06/08 12:10:37;;;;;;;6.78;3.03;;;22.60;89.20;;;;;;5038781;28;20098;-57
2023/06/08 12:13:08;;;;;;;9.25;3.03;;;22.60;87.60;;;;;;5035344;28;20073;-56
2023/06/08 12:15:40;;;;;;;7.80;2.67;;;22.60;86.90;;;;;;5034041;28;20490;-56
2023/06/08 12:18:06;;;;;;;8.93;2.83;;;22.60;88.10;;;;;;5030844;28;20048;-57
2023/06/08 12:20:35;;;;;;;12.82;3.53;;;22.60;87.70;;;;;;5037141;28;20033;-57
2023/06/08 12:23:02;;;;;;;7.18;3.20;;;22.60;86.40;;;;;;5033194;28;20531;-57
2023/06/08 12:25:28;;;;;;;6.68;2.72;;;22.70;86.50;;;;;;5034506;28;20116;-56
2023/06/08 12:27:54;;;;;;;10.32;2.97;;;22.70;84.20;;;;;;5031752;28;20439;-57
2023/06/08 12:30:21;;;;;;;8.70;2.78;;;22.70;84.60;;;;;;5035498;28;20049;-57
2023/06/08 12:32:47;;;;;;;8.25;2.80;;;22.70;85.00;;;;;;5050981;28;20045;-57
2023/06/08 12:35:13;;;;;;;8.75;2.67;;;22.80;84.90;;;;;;5038369;28;20039;-57
2023/06/08 12:37:38;;;;;;;8.05;2.88;;;22.90;83.30;;;;;;5033303;28;20569;-56
2023/06/08 12:40:06;;;;;;;6.35;2.75;;;23.00;82.60;;;;;;5036041;28;20503;-57
2023/06/08 12:42:32;;;;;;;8.13;2.78;;;23.10;81.90;;;;;;5034994;28;20449;-57
2023/06/08 12:44:58;;;;;;;8.07;2.90;;;23.20;81.80;;;;;;5038493;28;20084;-59